Time;durP1;ratioP1;P1;durP2;ratioP2;P2;SDS_P1;SDS_P2;PMS_P1;PMS_P2;Temp;Humidity;BMP_temperature;BMP_pressure;BME280_temperature;BME280_humidity;BME280_pressure;Samples;Min_cycle;Max_cycle;Signal;HPM_P1;HPM_P2
2023/04/14 00:02:22;;;;;;;59.40;47.10;;;;;;;9.15;100.00;97923.50;109419;1251;66051;-77
2023/04/14 00:04:52;;;;;;;55.00;45.30;;;;;;;9.13;100.00;97925.45;109593;1250;59821;-78
2023/04/14 00:07:19;;;;;;;55.70;45.80;;;;;;;9.11;100.00;97925.77;109545;1251;64062;-79
2023/04/14 00:09:46;;;;;;;56.20;47.20;;;;;;;9.11;100.00;97925.30;109558;1251;58982;-78
2023/04/14 00:12:12;;;;;;;54.90;46.50;;;;;;;9.11;100.00;97926.90;109554;1251;59082;-78
2023/04/14 00:14:41;;;;;;;55.70;48.10;;;;;;;9.09;100.00;97925.44;109570;1251;67283;-77
2023/04/14 00:17:08;;;;;;;53.90;45.30;;;;;;;9.06;100.00;97922.65;109464;1251;60266;-78
2023/04/14 00:19:35;;;;;;;59.20;48.40;;;;;;;9.01;100.00;97925.30;109537;1251;62830;-79
2023/04/14 00:22:01;;;;;;;56.20;47.10;;;;;;;9.00;100.00;97925.96;109577;1251;58964;-77
2023/04/14 00:24:28;;;;;;;58.60;49.30;;;;;;;8.99;100.00;97921.59;109562;1251;58889;-78
2023/04/14 00:26:55;;;;;;;54.80;48.70;;;;;;;8.98;100.00;97922.42;109560;1251;59631;-78
2023/04/14 00:29:22;;;;;;;56.20;49.90;;;;;;;8.97;100.00;97920.66;109585;1251;60113;-78
2023/04/14 00:31:48;;;;;;;62.60;51.70;;;;;;;8.97;100.00;97923.68;109189;1251;62805;-78
2023/04/14 00:34:15;;;;;;;59.80;50.10;;;;;;;8.96;100.00;97920.55;109543;1251;59034;-78
2023/04/14 00:36:42;;;;;;;56.90;48.70;;;;;;;8.96;100.00;97917.44;109478;1251;58975;-78
2023/04/14 00:39:08;;;;;;;60.70;51.70;;;;;;;8.95;100.00;97915.34;109538;1251;65008;-77
2023/04/14 00:41:35;;;;;;;65.70;54.30;;;;;;;8.95;100.00;97914.27;109517;1251;59098;-78
2023/04/14 00:44:01;;;;;;;64.90;52.50;;;;;;;8.96;100.00;97911.54;109211;1251;62845;-77
2023/04/14 00:46:28;;;;;;;70.30;57.30;;;;;;;8.97;100.00;97910.71;109589;1251;59217;-78
2023/04/14 00:48:55;;;;;;;66.10;55.30;;;;;;;8.99;100.00;97906.20;109558;1251;59066;-78
2023/04/14 00:51:22;;;;;;;65.10;54.50;;;;;;;9.00;100.00;97902.91;109537;1251;66428;-77
2023/04/14 00:53:52;;;;;;;68.80;56.30;;;;;;;8.99;100.00;97900.46;109550;1251;59145;-78
2023/04/14 00:56:19;;;;;;;75.40;65.70;;;;;;;9.00;100.00;97898.85;109544;1251;72137;-78
2023/04/14 00:58:45;;;;;;;72.50;63.50;;;;;;;8.99;100.00;97898.94;109287;1251;59321;-77
2023/04/14 01:01:12;;;;;;;69.30;60.80;;;;;;;8.97;100.00;97897.45;109539;1251;58969;-78
2023/04/14 01:03:39;;;;;;;69.70;58.80;;;;;;;8.97;100.00;97894.66;109583;1251;59661;-77
2023/04/14 01:06:06;;;;;;;68.00;55.00;;;;;;;8.96;100.00;97893.11;109541;1251;60228;-78
2023/04/14 01:08:32;;;;;;;66.70;55.60;;;;;;;8.96;100.00;97894.73;109211;1251;64087;-76
2023/04/14 01:11:17;;;;;;;62.80;53.50;;;;;;;8.95;100.00;97891.95;109528;1254;58966;-77
2023/04/14 01:13:58;;;;;;;61.90;51.30;;;;;;;8.95;100.00;97895.52;109543;1251;59028;-77
2023/04/14 01:16:31;;;;;;;62.50;52.90;;;;;;;8.94;100.00;97895.60;109367;1251;64512;-77
2023/04/14 01:19:23;;;;;;;59.60;50.90;;;;;;;8.94;100.00;97895.60;109526;1251;60446;-78
2023/04/14 01:21:59;;;;;;;61.10;50.50;;;;;;;8.94;100.00;97898.42;108970;1257;62692;-77
2023/04/14 01:24:50;;;;;;;61.20;51.40;;;;;;;8.93;100.00;97892.99;108933;1258;59356;-78
2023/04/14 01:27:39;;;;;;;64.50;54.40;;;;;;;8.92;100.00;97891.48;108970;1257;59034;-78
2023/04/14 01:30:42;;;;;;;65.90;52.00;;;;;;;8.89;100.00;97890.15;108958;1258;66174;-78
2023/04/14 01:33:16;;;;;;;64.80;54.40;;;;;;;8.86;100.00;97890.94;108979;1258;60147;-78
2023/04/14 01:35:52;;;;;;;68.50;56.20;;;;;;;8.86;100.00;97896.08;109004;1257;64062;-78
2023/04/14 01:38:27;;;;;;;65.00;55.80;;;;;;;8.86;100.00;97891.44;108971;1258;59058;-78
2023/04/14 01:41:03;;;;;;;69.80;56.50;;;;;;;8.86;100.00;97888.27;108935;1257;59222;-78
2023/04/14 01:43:32;;;;;;;69.80;55.60;;;;;;;8.86;100.00;97887.35;108917;1258;66070;-77
2023/04/14 01:46:08;;;;;;;68.70;55.30;;;;;;;8.86;100.00;97882.73;108968;1257;60093;-78
2023/04/14 01:48:36;;;;;;;69.40;57.40;;;;;;;8.86;100.00;97876.39;108981;1258;63776;-78
2023/04/14 01:51:04;;;;;;;70.10;57.60;;;;;;;8.85;100.00;97877.34;108931;1257;58995;-78
2023/04/14 01:53:34;;;;;;;71.70;57.20;;;;;;;8.85;100.00;97871.30;108927;1259;59114;-78
2023/04/14 01:56:02;;;;;;;;;;;;;;;8.86;100.00;97869.70;108962;1257;66043;-78
2023/04/14 01:58:31;;;;;;;73.10;57.50;;;;;;;8.85;100.00;97865.84;109150;1251;59063;-78
2023/04/14 02:00:58;;;;;;;72.50;58.40;;;;;;;8.86;100.00;97858.13;109299;1251;63901;-79
2023/04/14 02:03:25;;;;;;;70.50;57.70;;;;;;;8.87;100.00;97855.41;109107;1251;58994;-77
2023/04/14 02:05:55;;;;;;;67.70;56.20;;;;;;;8.86;100.00;97853.15;109401;1251;59083;-78
2023/04/14 02:08:23;;;;;;;70.70;57.40;;;;;;;8.84;100.00;97855.59;109561;1251;64826;-79
2023/04/14 02:10:52;;;;;;;73.30;58.00;;;;;;;8.84;100.00;97855.09;109602;1251;60233;-78
2023/04/14 02:13:20;;;;;;;70.70;56.30;;;;;;;8.83;100.00;97852.86;109574;1251;64057;-79
2023/04/14 02:15:50;;;;;;;72.30;59.40;;;;;;;8.82;100.00;97852.25;109541;1251;59005;-78
2023/04/14 02:18:20;;;;;;;65.30;53.90;;;;;;;8.82;100.00;97855.64;109624;1251;59031;-79
2023/04/14 02:20:48;;;;;;;70.80;56.20;;;;;;;8.82;100.00;97854.38;109637;1251;66042;-79
2023/04/14 02:23:15;;;;;;;71.30;55.30;;;;;;;8.83;100.00;97848.86;109538;1251;60136;-78
2023/04/14 02:25:50;;;;;;;70.60;57.00;;;;;;;8.83;100.00;97845.08;109573;1251;64048;-78
2023/04/14 02:28:20;;;;;;;73.90;58.60;;;;;;;8.82;100.00;97839.31;109394;1251;59296;-79
2023/04/14 02:30:51;;;;;;;78.30;58.10;;;;;;;8.81;100.00;97833.90;109345;1251;59224;-78
2023/04/14 02:33:21;;;;;;;75.50;59.60;;;;;;;8.78;100.00;97833.04;109368;1251;66046;-76
2023/04/14 02:36:00;;;;;;;72.60;55.20;;;;;;;8.76;100.00;97830.55;109516;1251;60233;-78
2023/04/14 02:38:40;;;;;;;72.50;56.10;;;;;;;8.73;100.00;97827.45;109503;1251;64144;-77
2023/04/14 02:41:25;;;;;;;71.50;54.70;;;;;;;8.70;100.00;97822.20;109367;1251;58937;-78
2023/04/14 02:44:00;;;;;;;70.70;57.10;;;;;;;8.68;100.00;97821.45;109528;1252;59123;-77
2023/04/14 02:46:31;;;;;;;70.10;55.90;;;;;;;8.67;100.00;97820.27;109217;1252;66166;-77
2023/04/14 02:49:01;;;;;;;71.60;57.00;;;;;;;8.68;100.00;97821.11;109588;1252;59009;-78
2023/04/14 02:51:30;;;;;;;64.60;50.70;;;;;;;8.69;100.00;97821.94;109410;1251;62883;-78
2023/04/14 02:53:57;;;;;;;64.50;52.40;;;;;;;8.68;100.00;97816.98;109464;1253;59349;-77
2023/04/14 02:56:24;;;;;;;66.90;53.70;;;;;;;8.68;100.00;97817.42;109529;1252;58928;-78
2023/04/14 02:58:51;;;;;;;71.90;55.50;;;;;;;8.66;100.00;97817.58;109504;1252;66035;-78
2023/04/14 03:01:19;;;;;;;73.70;56.80;;;;;;;8.64;100.00;97817.86;109479;1252;59087;-78
2023/04/14 03:03:46;;;;;;;69.50;53.60;;;;;;;8.64;100.00;97815.25;109471;1252;64047;-80
2023/04/14 03:06:14;;;;;;;71.90;55.70;;;;;;;8.62;100.00;97811.81;109484;1251;58980;-79
2023/04/14 03:08:42;;;;;;;76.20;54.60;;;;;;;8.59;100.00;97810.80;109513;1252;58960;-77
2023/04/14 03:11:13;;;;;;;72.00;54.60;;;;;;;8.57;100.00;97809.17;109366;1251;64880;-78
2023/04/14 03:13:41;;;;;;;;;;;;;;;8.56;100.00;97812.77;109533;1252;60252;-76
2023/04/14 03:16:09;;;;;;;76.80;57.60;;;;;;;8.55;100.00;97810.21;109507;1252;64051;-79
2023/04/14 03:18:36;;;;;;;75.50;55.90;;;;;;;8.55;100.00;97807.92;109483;1252;59033;-79
2023/04/14 03:21:03;;;;;;;79.60;58.30;;;;;;;8.55;100.00;97808.09;109368;1253;58937;-78
2023/04/14 03:23:32;;;;;;;75.80;55.90;;;;;;;8.55;100.00;97802.75;109489;1252;66032;-79
2023/04/14 03:26:02;;;;;;;78.50;59.60;;;;;;;8.56;100.00;97795.31;109532;1252;60241;-78
2023/04/14 03:28:31;;;;;;;66.90;50.70;;;;;;;8.55;100.00;97797.01;109386;1251;64046;-78
2023/04/14 03:31:02;;;;;;;74.50;54.90;;;;;;;8.51;100.00;97802.23;109347;1251;59148;-78
2023/04/14 03:33:31;;;;;;;73.60;54.80;;;;;;;8.50;100.00;97799.32;109425;1252;58967;-78
2023/04/14 03:35:59;;;;;;;73.90;54.90;;;;;;;8.50;100.00;97795.96;109370;1253;66028;-78
2023/04/14 03:38:29;;;;;;;74.60;55.60;;;;;;;8.49;100.00;97790.67;109554;1253;60278;-77
2023/04/14 03:40:58;;;;;;;;;;;;;;;8.50;100.00;97786.04;109537;1252;65020;-78
2023/04/14 03:43:27;;;;;;;67.00;50.30;;;;;;;8.47;100.00;97780.77;109528;1253;59011;-79
2023/04/14 03:45:53;;;;;;;70.50;54.20;;;;;;;8.46;100.00;97785.33;109271;1252;58946;-79
2023/04/14 03:48:20;;;;;;;68.70;52.30;;;;;;;8.45;100.00;97786.44;109529;1252;64829;-78
2023/04/14 03:50:50;;;;;;;67.10;50.70;;;;;;;8.44;100.00;97787.70;109503;1251;60273;-79
2023/04/14 03:53:18;;;;;;;67.90;50.90;;;;;;;8.45;100.00;97788.40;109355;1252;62847;-78
2023/04/14 03:55:48;;;;;;;64.80;51.00;;;;;;;8.45;100.00;97788.15;109242;1252;59013;-79
2023/04/14 03:58:16;;;;;;;70.10;51.10;;;;;;;8.45;100.00;97784.64;109557;1252;59114;-80
2023/04/14 04:00:43;;;;;;;71.30;52.90;;;;;;;8.45;100.00;97789.06;109459;1252;66018;-78
2023/04/14 04:03:12;;;;;;;74.40;53.30;;;;;;;8.46;100.00;97791.98;109534;1252;59094;-78
2023/04/14 04:05:40;;;;;;;75.40;54.40;;;;;;;8.48;100.00;97794.02;109517;1252;62916;-75
2023/04/14 04:08:08;;;;;;;67.00;50.40;;;;;;;8.48;100.00;97797.32;109380;1251;58972;-77
2023/04/14 04:10:36;;;;;;;68.50;50.90;;;;;;;8.50;100.00;97797.92;109522;1251;59213;-77
2023/04/14 04:13:10;;;;;;;75.50;55.20;;;;;;;8.52;100.00;97802.67;109349;1252;64840;-77
2023/04/14 04:15:38;;;;;;;78.80;56.00;;;;;;;8.55;100.00;97799.74;109376;1252;60427;-77
2023/04/14 04:18:07;;;;;;;73.50;53.80;;;;;;;8.60;100.00;97796.44;109336;1252;62875;-76
2023/04/14 04:20:37;;;;;;;78.70;54.50;;;;;;;8.61;100.00;97801.15;109464;1252;58978;-76
2023/04/14 04:23:06;;;;;;;77.90;56.50;;;;;;;8.61;100.00;97806.61;109398;1252;58955;-77
2023/04/14 04:25:36;;;;;;;77.80;56.40;;;;;;;8.62;100.00;97807.98;109358;1251;66055;-76
2023/04/14 04:28:03;;;;;;;74.10;53.70;;;;;;;8.65;100.00;97803.14;109372;1252;60128;-77
2023/04/14 04:30:32;;;;;;;77.70;56.70;;;;;;;8.69;100.00;97798.52;109508;1252;63283;-77
2023/04/14 04:33:02;;;;;;;75.80;54.90;;;;;;;8.72;100.00;97796.49;109499;1252;58955;-77
2023/04/14 04:35:30;;;;;;;76.00;54.60;;;;;;;8.75;100.00;97793.30;109453;1253;58984;-77
2023/04/14 04:37:57;;;;;;;72.60;51.90;;;;;;;8.78;100.00;97787.03;109544;1252;64810;-76
2023/04/14 04:40:23;;;;;;;63.90;48.50;;;;;;;8.82;100.00;97789.95;109231;1252;60248;-76
2023/04/14 04:43:15;;;;;;;53.90;41.90;;;;;;;8.84;100.00;97786.91;109483;1253;62886;-76
2023/04/14 04:45:57;;;;;;;50.30;41.30;;;;;;;8.87;100.00;97790.40;109412;1252;58965;-77
2023/04/14 04:48:24;;;;;;;47.30;39.20;;;;;;;8.89;100.00;97787.27;109506;1251;59013;-75
2023/04/14 04:50:51;;;;;;;44.40;36.50;;;;;;;8.89;100.00;97783.35;109168;1253;65856;-77
2023/04/14 04:53:17;;;;;;;47.60;38.30;;;;;;;8.88;100.00;97786.06;109512;1251;60091;-77
2023/04/14 04:55:44;;;;;;;43.10;34.70;;;;;;;8.88;100.00;97788.41;109523;1251;62808;-74
2023/04/14 04:58:11;;;;;;;39.50;33.00;;;;;;;8.88;100.00;97783.77;109469;1251;58983;-84
2023/04/14 05:00:38;;;;;;;47.20;36.20;;;;;;;8.89;100.00;97778.01;109441;1253;58905;-76
2023/04/14 05:03:05;;;;;;;46.20;37.50;;;;;;;8.91;100.00;97773.41;109203;1253;66015;-76
2023/04/14 05:05:35;;;;;;;44.30;35.60;;;;;;;8.94;100.00;97762.94;109554;1252;60140;-76
2023/04/14 05:08:02;;;;;;;47.10;38.70;;;;;;;8.96;100.00;97762.87;109508;1252;64064;-76
2023/04/14 05:10:29;;;;;;;46.50;37.00;;;;;;;8.99;100.00;97760.52;109200;1251;58981;-75
2023/04/14 05:12:55;;;;;;;48.70;39.50;;;;;;;9.02;100.00;97757.13;109263;1253;59018;-77
2023/04/14 05:15:22;;;;;;;51.50;40.50;;;;;;;9.06;100.00;97759.15;109470;1253;64846;-76
2023/04/14 05:17:48;;;;;;;52.00;39.70;;;;;;;9.09;100.00;97757.31;109515;1252;58958;-76
2023/04/14 05:20:15;;;;;;;53.80;42.30;;;;;;;9.11;100.00;97753.43;109541;1251;59793;-75
2023/04/14 05:22:41;;;;;;;51.60;40.60;;;;;;;9.13;100.00;97747.96;109469;1251;59036;-76
2023/04/14 05:25:08;;;;;;;48.60;38.50;;;;;;;9.15;100.00;97740.87;109551;1253;59019;-75
2023/04/14 05:27:34;;;;;;;47.60;37.20;;;;;;;9.20;100.00;97738.63;109545;1251;64962;-76
2023/04/14 05:30:02;;;;;;;49.70;39.30;;;;;;;9.28;100.00;97730.77;109513;1251;59908;-76
2023/04/14 05:32:28;;;;;;;39.60;34.70;;;;;;;9.36;100.00;97726.35;109486;1253;63745;-77
2023/04/14 05:34:56;;;;;;;46.00;35.10;;;;;;;9.45;100.00;97723.36;109477;1255;59041;-76
2023/04/14 05:37:23;;;;;;;45.20;34.00;;;;;;;9.54;100.00;97715.27;109201;1253;59287;-76
2023/04/14 05:39:50;;;;;;;39.90;32.40;;;;;;;9.70;100.00;97714.16;109472;1253;65279;-76
2023/04/14 05:42:16;;;;;;;38.20;32.20;;;;;;;9.85;100.00;97716.63;109192;1253;59482;-76
2023/04/14 05:44:43;;;;;;;38.80;33.20;;;;;;;10.01;100.00;97716.48;109509;1252;59088;-75
2023/04/14 05:47:09;;;;;;;37.70;33.50;;;;;;;10.13;100.00;97711.92;109371;1253;59046;-71
2023/04/14 05:49:36;;;;;;;38.70;31.80;;;;;;;10.18;100.00;97710.45;109508;1253;59436;-71
2023/04/14 05:52:02;;;;;;;35.70;30.30;;;;;;;10.18;100.00;97703.18;109200;1253;58946;-72
2023/04/14 05:54:29;;;;;;;37.60;29.60;;;;;;;10.17;100.00;97698.33;109502;1252;59083;-72
2023/04/14 05:56:56;;;;;;;35.80;30.90;;;;;;;10.15;100.00;97694.00;109506;1253;64215;-72
2023/04/14 05:59:22;;;;;;;35.70;31.40;;;;;;;10.17;100.00;97696.33;109487;1252;58956;-72
2023/04/14 06:01:49;;;;;;;36.60;29.30;;;;;;;10.19;100.00;97703.41;109557;1252;58999;-72
2023/04/14 06:04:16;;;;;;;31.00;27.60;;;;;;;10.18;100.00;97712.54;109265;1253;66020;-72
2023/04/14 06:06:42;;;;;;;35.80;31.10;;;;;;;10.19;100.00;97715.33;109489;1251;60110;-72
2023/04/14 06:09:09;;;;;;;34.20;30.40;;;;;;;10.20;100.00;97716.82;109474;1252;64042;-72
2023/04/14 06:11:36;;;;;;;33.00;28.60;;;;;;;10.28;100.00;97715.79;109503;1253;59009;-72
2023/04/14 06:14:04;;;;;;;31.60;28.20;;;;;;;10.45;100.00;97713.66;109459;1253;59082;-72
2023/04/14 06:16:30;;;;;;;32.60;27.50;;;;;;;10.61;100.00;97705.90;109508;1252;64827;-72
2023/04/14 06:18:57;;;;;;;29.30;26.10;;;;;;;10.73;100.00;97702.98;109533;1252;59423;-71
2023/04/14 06:21:23;;;;;;;32.20;27.50;;;;;;;10.92;100.00;97706.46;109546;1253;64009;-71
2023/04/14 06:23:50;;;;;;;28.10;25.10;;;;;;;11.24;100.00;97710.41;109479;1251;58892;-72
2023/04/14 06:26:16;;;;;;;30.60;27.40;;;;;;;11.44;100.00;97704.47;109522;1253;58991;-72
2023/04/14 06:28:43;;;;;;;30.40;26.20;;;;;;;11.72;100.00;97706.06;109506;1252;65284;-73
2023/04/14 06:31:10;;;;;;;26.60;23.80;;;;;;;11.99;100.00;97698.52;109505;1252;59031;-73
2023/04/14 06:33:36;;;;;;;29.10;26.00;;;;;;;12.13;100.00;97692.30;109521;1253;63412;-72
2023/04/14 06:36:03;;;;;;;28.00;25.10;;;;;;;12.12;100.00;97687.33;109462;1252;59276;-72
2023/04/14 06:38:29;;;;;;;26.70;24.00;;;;;;;11.98;100.00;97685.79;109516;1252;58860;-73
2023/04/14 06:40:56;;;;;;;27.70;24.80;;;;;;;11.91;100.00;97677.23;109512;1253;66098;-72
2023/04/14 06:43:22;;;;;;;25.90;23.10;;;;;;;11.99;100.00;97659.73;109489;1254;59010;-73
2023/04/14 06:45:49;;;;;;;26.20;23.30;;;;;;;12.06;100.00;97660.64;109453;1252;64042;-73
2023/04/14 06:48:16;;;;;;;27.50;24.50;;;;;;;12.19;100.00;97656.44;109549;1253;59395;-72
2023/04/14 06:51:13;;;;;;;27.90;25.00;;;;;;;12.28;100.00;97646.31;109205;1257;59222;-72
2023/04/14 06:53:40;;;;;;;30.00;25.30;;;;;;;12.32;100.00;97644.47;109496;1253;66042;-71
2023/04/14 06:56:07;;;;;;;26.80;23.90;;;;;;;12.37;100.00;97648.10;109466;1253;59049;-72
2023/04/14 06:58:33;;;;;;;26.00;23.40;;;;;;;12.41;100.00;97638.44;109453;1253;63867;-72
2023/04/14 07:01:01;;;;;;;27.50;24.60;;;;;;;12.41;100.00;97638.89;109433;1253;58926;-72
2023/04/14 07:03:29;;;;;;;27.40;24.50;;;;;;;12.40;100.00;97635.73;109474;1253;58903;-72
2023/04/14 07:06:09;;;;;;;27.70;24.80;;;;;;;12.36;100.00;97637.13;109180;1253;66083;-72
2023/04/14 07:08:36;;;;;;;27.80;24.90;;;;;;;12.22;100.00;97640.67;109304;1253;58985;-73
2023/04/14 07:11:10;;;;;;;26.80;24.00;;;;;;;12.10;100.00;97644.45;109453;1253;63920;-73
2023/04/14 07:13:38;;;;;;;28.80;25.50;;;;;;;12.03;100.00;97644.25;109508;1254;59035;-72
2023/04/14 07:16:05;;;;;;;27.10;24.10;;;;;;;12.03;100.00;97647.23;109460;1251;58928;-73
2023/04/14 07:18:32;;;;;;;28.50;24.80;;;;;;;12.05;100.00;97643.86;109463;1251;64770;-72
2023/04/14 07:20:59;;;;;;;28.50;24.10;;;;;;;12.10;100.00;97640.52;109469;1251;59223;-72
2023/04/14 07:23:27;;;;;;;28.70;24.70;;;;;;;12.20;100.00;97641.56;109495;1251;62817;-72
2023/04/14 07:25:55;;;;;;;28.60;25.50;;;;;;;12.40;100.00;97642.16;109488;1251;58962;-72
2023/04/14 07:28:23;;;;;;;26.10;22.90;;;;;;;12.56;100.00;97640.93;109302;1251;59045;-72
2023/04/14 07:30:50;;;;;;;30.10;24.00;;;;;;;12.66;100.00;97643.32;109498;1251;66000;-72
2023/04/14 07:33:21;;;;;;;27.40;23.80;;;;;;;12.79;100.00;97644.23;109478;1256;60379;-72
2023/04/14 07:35:51;;;;;;;27.90;24.40;;;;;;;12.86;100.00;97641.09;109076;1251;64102;-72
2023/04/14 07:38:18;;;;;;;26.50;23.10;;;;;;;12.92;100.00;97635.52;109431;1251;59133;-76
2023/04/14 07:40:45;;;;;;;25.60;22.10;;;;;;;12.96;100.00;97636.67;109251;1251;59051;-78
2023/04/14 07:43:12;;;;;;;26.50;23.50;;;;;;;12.91;100.00;97632.88;109298;1251;66078;-78
2023/04/14 07:45:38;;;;;;;23.50;21.00;;;;;;;12.88;100.00;97627.69;109527;1251;59722;-77
2023/04/14 07:48:05;;;;;;;24.50;21.60;;;;;;;12.77;100.00;97625.89;109533;1253;65289;-78
2023/04/14 07:50:32;;;;;;;24.70;21.40;;;;;;;12.65;100.00;97622.42;109260;1251;58995;-78
2023/04/14 07:52:58;;;;;;;25.40;21.70;;;;;;;12.56;100.00;97617.08;109506;1251;59045;-78
2023/04/14 07:55:25;;;;;;;21.60;19.40;;;;;;;12.54;100.00;97613.74;109533;1251;65199;-78
2023/04/14 07:57:52;;;;;;;22.20;19.70;;;;;;;12.58;100.00;97615.83;109535;1251;59389;-78
2023/04/14 08:00:18;;;;;;;25.30;19.90;;;;;;;12.72;100.00;97610.54;109494;1252;64022;-78
2023/04/14 08:02:45;;;;;;;23.90;19.80;;;;;;;12.89;100.00;97615.83;109505;1251;59031;-78
2023/04/14 08:05:11;;;;;;;19.00;16.00;;;;;;;13.03;100.00;97613.77;109553;1254;58866;-78
2023/04/14 08:07:38;;;;;;;19.20;16.40;;;;;;;13.11;100.00;97615.45;109500;1251;59166;-77
2023/04/14 08:10:05;;;;;;;22.90;18.00;;;;;;;13.19;100.00;97613.59;109506;1255;59047;-77
2023/04/14 08:12:31;;;;;;;20.60;18.20;;;;;;;13.28;100.00;97610.21;109492;1251;62808;-78
2023/04/14 08:14:58;;;;;;;23.60;17.90;;;;;;;13.37;100.00;97610.17;109520;1252;59237;-78
2023/04/14 08:17:26;;;;;;;20.50;16.90;;;;;;;13.45;100.00;97611.23;109509;1255;58969;-78
2023/04/14 08:19:52;;;;;;;19.50;16.80;;;;;;;13.50;100.00;97618.37;109349;1250;64449;-77
2023/04/14 08:22:19;;;;;;;19.80;17.40;;;;;;;13.61;100.00;97611.52;109548;1251;60149;-78
2023/04/14 08:24:45;;;;;;;24.00;17.90;;;;;;;13.85;100.00;97608.92;109508;1251;59749;-78
2023/04/14 08:27:15;;;;;;;18.80;16.80;;;;;;;14.12;100.00;97608.82;109473;1251;59031;-78
2023/04/14 08:29:41;;;;;;;18.20;16.20;;;;;;;14.35;100.00;97606.05;109521;1251;58918;-77
2023/04/14 08:32:08;;;;;;;20.60;16.20;;;;;;;14.49;100.00;97605.48;109524;1250;59546;-78
2023/04/14 08:34:35;;;;;;;16.80;15.10;;;;;;;14.63;100.00;97603.61;109543;1251;60223;-78
2023/04/14 08:37:01;;;;;;;17.80;15.40;;;;;;;14.83;100.00;97598.83;109513;1251;62868;-78
2023/04/14 08:39:28;;;;;;;18.00;15.00;;;;;;;15.00;100.00;97595.73;109476;1251;59052;-78
2023/04/14 08:41:55;;;;;;;18.70;15.10;;;;;;;15.00;100.00;97601.30;109480;1255;58999;-77
2023/04/14 08:44:22;;;;;;;21.70;16.60;;;;;;;15.00;100.00;97603.52;109528;1251;64507;-77
2023/04/14 08:46:54;;;;;;;18.40;16.40;;;;;;;15.01;100.00;97602.08;109529;1251;59925;-77
2023/04/14 08:49:41;;;;;;;20.90;15.50;;;;;;;15.04;100.00;97602.50;109501;1251;63976;-76
2023/04/14 08:52:10;;;;;;;19.20;15.40;;;;;;;15.09;100.00;97604.43;109482;1251;59003;-76
2023/04/14 08:54:40;;;;;;;17.10;14.50;;;;;;;15.14;100.00;97602.13;109495;1250;58973;-76
2023/04/14 08:57:09;;;;;;;;;;;;;;;15.15;100.00;97603.30;109504;1251;65331;-76
2023/04/14 08:59:37;;;;;;;19.00;15.80;;;;;;;15.15;100.00;97602.88;109507;1251;60245;-76
2023/04/14 09:02:06;;;;;;;18.50;14.50;;;;;;;15.14;100.00;97599.41;109306;1251;64058;-76
2023/04/14 09:04:34;;;;;;;18.90;13.50;;;;;;;15.09;100.00;97600.67;109535;1251;58977;-76
2023/04/14 09:07:01;;;;;;;18.60;13.90;;;;;;;15.01;100.00;97596.07;109479;1251;58863;-77
2023/04/14 09:09:30;;;;;;;17.40;14.10;;;;;;;14.92;100.00;97595.39;109453;1251;64936;-77
2023/04/14 09:11:57;;;;;;;18.00;14.30;;;;;;;14.84;100.00;97593.35;109444;1251;61034;-77
2023/04/14 09:14:24;;;;;;;17.00;14.10;;;;;;;14.82;100.00;97596.94;109549;1251;64054;-76
2023/04/14 09:16:52;;;;;;;17.00;13.70;;;;;;;14.84;100.00;97591.72;109505;1251;58942;-76
2023/04/14 09:19:20;;;;;;;16.00;13.00;;;;;;;14.80;100.00;97593.78;109526;1251;58976;-76
2023/04/14 09:21:47;;;;;;;15.50;12.90;;;;;;;14.72;100.00;97595.77;109498;1251;66050;-76
2023/04/14 09:24:17;;;;;;;16.90;14.70;;;;;;;14.64;100.00;97598.69;109486;1251;59007;-77
2023/04/14 09:26:43;;;;;;;16.80;13.40;;;;;;;14.53;100.00;97600.35;109370;1251;189037;-77
2023/04/14 09:29:10;;;;;;;15.90;14.20;;;;;;;14.44;100.00;97596.30;109501;1251;58951;-76
2023/04/14 09:31:37;;;;;;;18.00;13.70;;;;;;;14.40;100.00;97589.06;109556;1251;58992;-77
2023/04/14 09:34:04;;;;;;;14.20;12.70;;;;;;;14.35;100.00;97582.67;109558;1251;66027;-77
2023/04/14 09:36:30;;;;;;;15.10;12.80;;;;;;;14.28;100.00;97576.67;109488;1251;60159;-77
2023/04/14 09:38:57;;;;;;;13.90;12.40;;;;;;;14.23;100.00;97575.62;109483;1251;64520;-76
2023/04/14 09:41:26;;;;;;;14.70;12.50;;;;;;;14.17;100.00;97573.77;109274;1251;59068;-77
2023/04/14 09:43:53;;;;;;;14.00;11.10;;;;;;;14.10;100.00;97567.77;109523;1251;59048;-77
2023/04/14 09:46:20;;;;;;;14.40;11.20;;;;;;;14.04;100.00;97564.23;109369;1251;66027;-77
2023/04/14 09:48:54;;;;;;;14.70;11.70;;;;;;;14.04;100.00;97559.05;109524;1251;59893;-77
2023/04/14 09:51:22;;;;;;;10.40;9.30;;;;;;;14.10;100.00;97552.52;109494;1251;64133;-77
2023/04/14 09:53:51;;;;;;;11.10;9.00;;;;;;;14.21;100.00;97555.15;109310;1251;59087;-78
2023/04/14 09:56:20;;;;;;;13.00;9.20;;;;;;;14.36;100.00;97555.73;109482;1251;58939;-77
2023/04/14 09:58:47;;;;;;;10.60;9.50;;;;;;;14.48;100.00;97552.46;109524;1251;66033;-77
2023/04/14 10:01:16;;;;;;;9.90;8.70;;;;;;;14.59;100.00;97552.59;109430;1251;59037;-77
2023/04/14 10:03:48;;;;;;;10.70;9.10;;;;;;;14.68;100.00;97553.36;109505;1251;64067;-77
2023/04/14 10:06:17;;;;;;;9.80;8.80;;;;;;;14.75;100.00;97550.21;109487;1251;58955;-77
2023/04/14 10:08:47;;;;;;;11.10;10.00;;;;;;;14.78;100.00;97547.01;109430;1251;59010;-77
2023/04/14 10:11:24;;;;;;;11.40;10.20;;;;;;;14.80;100.00;97549.52;109398;1254;66042;-77
2023/04/14 10:13:59;;;;;;;10.40;9.40;;;;;;;14.81;100.00;97548.64;109343;1251;59303;-78
2023/04/14 10:16:26;;;;;;;13.80;11.00;;;;;;;14.87;100.00;97546.92;109542;1251;64040;-77
2023/04/14 10:18:55;;;;;;;10.70;9.60;;;;;;;14.95;100.00;97533.33;109530;1251;59014;-77
2023/04/14 10:21:23;;;;;;;11.60;9.10;;;;;;;15.14;100.00;97526.38;109512;1251;59013;-77
2023/04/14 10:23:51;;;;;;;11.00;9.80;;;;;;;15.46;100.00;97533.11;109411;1251;66041;-77
2023/04/14 10:26:18;;;;;;;11.30;9.50;;;;;;;15.69;100.00;97536.34;109516;1251;60103;-78
2023/04/14 10:28:49;;;;;;;10.50;9.30;;;;;;;15.73;100.00;97535.35;109505;1251;64076;-78
2023/04/14 10:31:38;;;;;;;11.10;9.50;;;;;;;15.72;100.00;97530.97;109082;1256;59028;-78
2023/04/14 10:34:11;;;;;;;10.40;9.30;;;;;;;15.76;100.00;97520.52;108966;1256;59053;-77
2023/04/14 10:36:39;;;;;;;11.60;9.10;;;;;;;15.85;100.00;97520.08;109140;1256;64828;-78
2023/04/14 10:39:06;;;;;;;10.10;8.90;;;;;;;16.02;100.00;97513.31;108998;1257;61014;-78
2023/04/14 10:41:41;;;;;;;13.60;9.40;;;;;;;16.22;100.00;97508.19;109106;1256;62864;-77
2023/04/14 10:44:31;;;;;;;10.40;8.70;;;;;;;16.40;100.00;97506.80;109067;1256;59015;-78
2023/04/14 10:47:00;;;;;;;9.60;8.40;;;;;;;16.52;100.00;97504.04;109035;1257;59040;-77
2023/04/14 10:49:31;;;;;;;9.60;8.70;;;;;;;16.60;100.00;97497.34;109090;1256;66104;-78
2023/04/14 10:52:03;;;;;;;8.20;7.30;;;;;;;16.67;100.00;97493.83;109127;1256;59915;-78
2023/04/14 10:54:51;;;;;;;9.80;8.30;;;;;;;16.71;100.00;97484.28;109102;1257;62810;-77
2023/04/14 10:57:21;;;;;;;9.60;7.70;;;;;;;16.77;100.00;97478.38;109103;1257;59121;-76
2023/04/14 10:59:53;;;;;;;7.90;6.80;;;;;;;16.95;100.00;97478.66;109127;1256;59141;-78
2023/04/14 11:02:30;;;;;;;9.70;6.20;;;;;;;17.16;100.00;97483.83;109290;1251;64806;-77
2023/04/14 11:05:12;;;;;;;8.10;6.10;;;;;;;17.37;100.00;97482.48;109388;1251;59967;-77
2023/04/14 11:07:54;;;;;;;7.10;5.90;;;;;;;17.55;100.00;97482.23;109524;1251;64159;-77
2023/04/14 11:10:21;;;;;;;6.10;4.60;;;;;;;17.58;100.00;97480.06;109395;1251;59121;-77
2023/04/14 11:13:09;;;;;;;6.40;4.90;;;;;;;17.53;100.00;97479.82;109474;1253;59009;-78
2023/04/14 11:16:00;;;;;;;5.80;4.40;;;;;;;17.49;100.00;97475.13;108951;1259;66471;-78
2023/04/14 11:18:26;;;;;;;4.70;3.70;;;;;;;17.53;100.00;97462.05;108978;1259;59221;-77